Last 7 Days

Pierce College

10 Minute Data | America/Los_Angeles
as of 9/30/22 6:58 PM PDT
Date & Time Temp Max (°F) Temp Min (°F) RH (%) Dew Pt (°F) Latest Rain (In) Soil Temp (°F) Soil Moist (%) Pressure (mb) Wind Spd (mph) Wind Dir (°) Wind Gust (mph) Wind Gst Dir (°) Leaf Wet Raw (mV) Net Radiation (W/m²) Evap Pan Wind Spd (mph) Evap Pan WindRun (miles) Evap Pan H2O Temp (°F) Evap Pan Level (In) Seasonal Rainfall (In)
9/30/22 - 1850 72.2 71.2 54 54.1 0.00 84.0 25.3 1,010.2 1.6 S | 180 3.4 SSW | 197 266 -91 0.7 13.5 68.2 3.8 0.16
9/30/22 - 1840 73.3 72.2 50 53.1 0.00 83.9 25.3 1,010.1 2.0 SSW | 193 4.3 SSW | 208 266 -90 1.3 13.4 70.4 3.8 0.16
9/30/22 - 1830 74.8 73.3 49 53.6 0.00 83.9 25.3 1,010.0 2.4 S | 189 4.1 SSW | 196 266 -89 1.7 13.2 72.7 3.8 0.16
9/30/22 - 1820 76.6 74.7 45 53.2 0.00 83.8 25.3 1,010.0 2.1 SSE | 159 4.6 SE | 133 266 -87 1.0 12.9 75.2 3.8 0.16
9/30/22 - 1810 78.1 76.5 40 51.4 0.00 83.8 25.3 1,009.9 2.4 SE | 144 4.1 SE | 146 265 -61 1.2 12.7 77.3 3.8 0.16
9/30/22 - 1800 78.8 77.9 36 49.2 0.00 83.7 25.3 1,009.9 1.4 ESE | 104 3.3 SE | 143 264 -42 1.0 12.5 78.7 3.8 0.16
9/30/22 - 1750 79.4 78.7 33 47.8 0.00 83.7 25.3 1,009.8 1.7 ESE | 117 3.4 ESE | 107 264 -19 1.2 12.4 79.8 3.8 0.16
9/30/22 - 1740 80.5 79.4 31 46.8 0.00 83.6 25.3 1,009.8 2.2 ESE | 108 4.0 SE | 139 264 5 1.2 12.2 80.8 3.8 0.16
9/30/22 - 1730 80.6 79.9 30 45.7 0.00 83.6 25.3 1,009.9 1.9 ESE | 112 5.1 SE | 131 264 32 1.2 12.0 81.9 3.8 0.16
9/30/22 - 1720 81.5 80.3 31 47.6 0.00 83.5 25.3 1,009.9 2.3 SE | 145 4.4 SE | 132 264 60 1.5 11.8 82.5 3.8 0.16
9/30/22 - 1710 81.6 80.9 36 51.7 0.00 83.7 25.3 1,009.9 1.6 ENE | 57 3.6 NNE | 30 264 86 1.1 11.5 83.4 3.8 0.16
9/30/22 - 1700 81.6 81.2 36 51.9 0.00 83.9 25.3 1,010.0 2.1 NE | 46 3.3 NE | 50 264 111 0.9 11.3 84.3 3.8 0.16
9/30/22 - 1650 82.5 81.4 35 51.5 0.00 83.9 25.2 1,010.0 2.4 NE | 51 5.5 ENE | 60 264 139 1.1 11.2 85.2 3.8 0.16
9/30/22 - 1640 82.4 81.9 34 51.2 0.00 83.7 25.2 1,010.0 2.1 ENE | 64 5.9 ESE | 112 264 164 1.1 11.0 85.7 3.8 0.16
9/30/22 - 1630 83.1 82.0 35 51.9 0.00 83.6 25.2 1,010.0 2.4 ENE | 78 7.7 SSE | 159 264 191 1.4 10.8 86.5 3.8 0.16
9/30/22 - 1620 83.3 82.6 34 52.0 0.00 83.6 25.2 1,010.1 2.1 ENE | 63 7.3 ENE | 68 264 217 1.4 10.6 86.5 3.8 0.16
9/30/22 - 1610 83.4 82.0 36 53.1 0.00 83.6 25.2 1,010.1 2.6 E | 82 7.0 ESE | 106 264 242 1.5 10.3 87.0 3.8 0.16
9/30/22 - 1600 83.3 82.1 39 54.9 0.00 83.5 25.2 1,010.2 2.9 E | 82 6.6 SE | 137 265 263 1.7 10.1 87.3 3.8 0.16
9/30/22 - 1550 83.6 82.3 40 56.0 0.00 83.4 25.1 1,010.3 2.9 ENE | 62 8.1 ESE | 105 265 283 1.4 9.8 87.9 3.8 0.16
9/30/22 - 1540 84.0 82.9 40 56.3 0.00 83.4 25.1 1,010.3 2.7 ENE | 65 7.0 E | 100 265 304 1.6 9.6 88.9 3.8 0.16
9/30/22 - 1530 84.4 83.5 35 53.4 0.00 83.3 25.1 1,010.4 2.7 ENE | 76 6.6 ESE | 117 264 320 1.4 9.3 89.5 3.8 0.16
9/30/22 - 1520 84.2 83.2 33 51.4 0.00 83.2 25.1 1,010.4 3.0 ESE | 108 7.5 SE | 124 264 343 1.7 9.0 89.4 3.8 0.16
9/30/22 - 1510 84.2 83.1 34 52.1 0.00 83.2 25.1 1,010.5 4.2 E | 98 7.1 SE | 132 264 362 2.3 8.8 89.7 3.8 0.16
9/30/22 - 1500 84.6 82.9 40 57.0 0.00 83.1 25.1 1,010.6 2.5 ENE | 75 6.1 E | 90 264 376 1.3 8.4 90.5 3.8 0.16
9/30/22 - 1450 84.5 83.2 41 57.7 0.00 83.1 25.1 1,010.7 4.1 E | 92 8.2 NE | 45 264 397 2.0 8.2 91.6 3.8 0.16
9/30/22 - 1440 85.4 84.1 40 57.8 0.00 83.1 25.1 1,010.8 2.8 ENE | 67 7.0 ENE | 76 265 406 1.9 7.8 92.5 3.8 0.16
9/30/22 - 1430 85.3 83.9 40 57.9 0.00 83.2 25.1 1,010.9 2.5 NE | 45 4.5 NNE | 16 264 414 1.5 7.5 92.5 3.8 0.16
9/30/22 - 1420 85.2 84.0 41 58.2 0.00 83.1 25.1 1,011.0 2.9 NE | 51 6.4 E | 97 264 426 1.7 7.3 93.5 3.8 0.16
9/30/22 - 1410 85.4 83.5 42 58.7 0.00 83.1 25.1 1,011.1 3.0 ENE | 62 7.9 ESE | 107 265 442 1.7 7.0 93.8 3.8 0.16
9/30/22 - 1400 85.1 83.4 41 58.2 0.00 83.0 25.1 1,011.2 2.0 NNE | 30 4.3 NNE | 18 265 446 1.1 6.7 93.9 3.8 0.16
9/30/22 - 1350 84.8 83.4 41 58.0 0.00 83.0 25.0 1,011.4 1.9 ENE | 73 4.4 ESE | 112 265 457 1.4 6.5 94.0 3.8 0.16
9/30/22 - 1340 84.8 84.2 41 58.0 0.00 83.0 25.0 1,011.6 2.5 NNE | 31 4.1 NNE | 13 265 466 1.3 6.3 94.4 3.8 0.16
9/30/22 - 1330 84.5 83.2 41 58.0 0.00 83.0 25.0 1,011.8 2.2 NE | 34 4.0 E | 98 266 474 1.2 6.1 94.5 3.8 0.16
9/30/22 - 1320 83.7 82.8 42 57.9 0.00 82.9 25.0 1,011.9 2.9 NNE | 32 4.8 NE | 37 266 483 1.4 5.9 95.3 3.8 0.16
9/30/22 - 1310 83.4 82.0 43 57.8 0.00 83.0 25.0 1,012.1 2.3 ENE | 70 5.3 ENE | 65 266 494 1.5 5.6 95.6 3.8 0.16
9/30/22 - 1300 82.8 80.4 46 58.4 0.00 83.0 25.0 1,012.2 2.3 ENE | 77 6.0 ENE | 68 266 498 1.4 5.4 95.0 3.8 0.16
9/30/22 - 1250 82.4 81.2 46 58.8 0.00 82.9 25.0 1,012.4 2.6 ENE | 61 5.9 NE | 51 266 493 1.4 5.2 95.9 3.8 0.16
9/30/22 - 1240 82.1 79.8 47 58.7 0.00 82.9 25.0 1,012.5 1.8 NE | 43 5.3 ESE | 122 266 496 1.2 4.9 94.3 3.8 0.16
9/30/22 - 1230 80.7 79.4 48 58.7 0.00 82.9 25.0 1,012.7 2.6 ENE | 69 6.2 ENE | 60 266 496 1.6 4.7 93.8 3.8 0.16
9/30/22 - 1220 80.7 80.0 48 58.6 0.00 83.0 25.0 1,012.9 2.5 NE | 56 5.2 ENE | 69 266 489 1.4 4.5 93.2 3.8 0.16
9/30/22 - 1210 80.5 79.4 49 58.8 0.00 83.0 25.0 1,012.9 2.1 NE | 38 4.4 E | 101 266 484 1.2 4.2 92.1 3.8 0.16
9/30/22 - 1200 79.6 78.2 51 59.1 0.00 83.0 25.0 1,013.0 2.0 ENE | 61 5.8 E | 98 266 482 1.4 4.0 90.4 3.8 0.16
9/30/22 - 1150 78.4 77.6 52 59.2 0.00 83.0 25.0 1,013.1 2.0 NNE | 21 4.1 NE | 50 266 470 1.0 3.8 88.6 3.8 0.16
9/30/22 - 1140 78.1 77.1 53 59.3 0.00 82.9 25.0 1,013.2 2.3 NE | 40 4.4 NNE | 20 266 463 1.1 3.6 86.9 3.8 0.16
9/30/22 - 1130 77.3 76.3 55 59.4 0.00 82.9 25.0 1,013.3 2.0 E | 81 4.8 E | 100 266 457 1.4 3.4 86.3 3.8 0.16
9/30/22 - 1120 76.8 76.2 56 59.5 0.00 83.0 25.0 1,013.4 2.3 ENE | 59 5.2 E | 96 266 446 1.2 3.2 85.6 3.8 0.16
9/30/22 - 1110 76.3 75.3 57 59.4 0.00 83.0 25.0 1,013.6 2.0 NNE | 27 4.4 NE | 53 266 439 0.8 3.0 84.3 3.8 0.16
9/30/22 - 1100 75.8 74.7 58 59.5 0.00 83.0 25.0 1,013.7 1.6 N | 353 4.8 NE | 36 266 423 0.9 2.9 83.6 3.8 0.16
9/30/22 - 1050 74.8 74.1 60 59.5 0.00 83.1 25.1 1,014.0 1.6 NNE | 25 4.1 WNW | 294 267 399 1.0 2.7 83.0 3.8 0.16
9/30/22 - 1040 74.6 73.5 60 59.6 0.00 83.0 25.1 1,014.0 2.1 ENE | 78 5.9 E | 92 266 394 1.4 2.6 82.9 3.8 0.16
9/30/22 - 1030 74.8 73.6 60 59.7 0.00 83.0 25.1 1,014.1 2.1 E | 88 7.5 SE | 133 267 384 1.1 2.3 81.9 3.8 0.16
9/30/22 - 1020 73.8 72.8 62 59.6 0.00 83.0 25.1 1,014.2 1.1 NE | 46 3.9 NNE | 23 267 365 0.6 2.1 80.8 3.8 0.16
9/30/22 - 1010 73.0 71.8 64 59.6 0.00 83.1 25.1 1,014.3 1.5 NNE | 26 3.4 NE | 48 267 353 0.8 2.0 79.5 3.8 0.16
9/30/22 - 1000 72.9 71.8 63 59.2 0.00 83.0 25.1 1,014.3 1.4 ENE | 69 3.2 E | 94 268 214 0.7 1.9 80.7 3.8 0.16
9/30/22 - 0950 72.6 69.8 65 59.6 0.00 83.1 25.1 1,014.4 1.3 NE | 47 3.8 ENE | 76 268 318 0.7 1.8 81.9 3.8 0.16
9/30/22 - 0940 69.8 68.9 71 59.3 0.00 83.1 25.1 1,014.4 1.8 WSW | 252 3.2 WSW | 252 269 254 1.7 1.7 78.7 3.8 0.16
9/30/22 - 0930 69.1 68.3 72 59.3 0.00 83.1 25.1 1,014.4 1.2 W | 276 2.9 WNW | 287 269 155 1.2 1.4 77.4 3.8 0.16
9/30/22 - 0920 68.7 68.2 73 59.2 0.00 83.5 25.1 1,014.3 1.6 ESE | 116 4.2 SE | 142 270 127 1.0 1.2 77.6 3.8 0.16
9/30/22 - 0910 69.0 68.3 72 59.4 0.00 83.2 25.1 1,014.3 1.2 SSE | 164 4.1 SSE | 163 270 138 0.7 1.0 76.7 3.8 0.16
9/30/22 - 0900 68.7 67.9 74 59.5 0.00 83.1 25.2 1,014.2 0.7 NW | 307 2.0 NNW | 345 270 129 0.4 0.9 74.6 3.8 0.16
9/30/22 - 0850 67.9 67.4 74 59.3 0.00 83.1 25.2 1,014.2 0.5 WSW | 241 2.1 SW | 232 270 85 0.4 0.8 72.8 3.8 0.16
9/30/22 - 0840 67.6 67.1 75 59.3 0.00 83.2 25.2 1,014.2 0.6 ENE | 67 2.4 ENE | 66 270 63 0.2 0.8 71.1 3.8 0.16
9/30/22 - 0830 67.3 66.9 76 59.3 0.00 83.2 25.2 1,014.3 0.8 NE | 52 2.8 ENE | 68 271 44 0.4 0.7 70.6 3.8 0.16
9/30/22 - 0820 67.0 66.5 77 59.3 0.00 83.3 25.2 1,014.3 0.7 NNE | 30 1.8 NNE | 24 271 36 0.0 0.7 70.2 3.8 0.16
9/30/22 - 0810 66.7 66.2 77 59.2 0.00 83.3 25.2 1,014.1 0.5 N | 5 1.8 N | 0 272 39 0.0 0.7 69.4 3.8 0.16
9/30/22 - 0800 66.5 66.0 78 59.2 0.00 83.2 25.2 1,014.1 0.6 NNE | 28 2.3 N | 8 272 27 0.1 0.7 68.5 3.8 0.16
9/30/22 - 0750 66.3 65.6 79 59.3 0.00 83.4 25.2 1,014.0 0.5 ENE | 62 2.4 NNE | 18 272 22 0.2 0.7 67.5 3.8 0.16
9/30/22 - 0740 65.9 65.4 80 59.3 0.00 83.4 25.2 1,013.9 0.7 E | 79 2.2 N | 11 272 10 0.2 0.6 66.9 3.8 0.16
9/30/22 - 0730 65.6 65.2 81 59.3 0.00 83.5 25.2 1,013.8 0.3 ENE | 76 1.6 ESE | 106 273 4 0.2 0.6 66.3 3.8 0.16
9/30/22 - 0720 65.4 65.0 81 59.4 0.00 83.5 25.2 1,013.8 0.7 ENE | 76 2.2 ESE | 112 273 -3 0.3 0.6 65.9 3.8 0.16
9/30/22 - 0710 65.1 64.7 82 59.5 0.00 83.5 25.2 1,013.8 0.4 NNE | 30 1.6 N | 10 273 -5 0.0 0.5 65.6 3.8 0.16
9/30/22 - 0700 65.0 64.5 83 59.4 0.00 83.6 25.2 1,013.8 0.5 N | 10 2.3 NNE | 15 273 -8 0.0 0.5 65.3 3.8 0.16
9/30/22 - 0650 64.6 64.3 84 59.4 0.00 83.7 25.3 1,013.8 0.5 NE | 54 2.0 E | 96 273 -9 0.1 0.5 65.2 3.8 0.16
9/30/22 - 0640 64.4 64.0 84 59.4 0.00 83.7 25.2 1,013.9 1.0 NE | 36 2.5 NNE | 17 274 -10 0.1 0.5 65.2 3.8 0.16
9/30/22 - 0630 64.1 63.8 85 59.3 0.00 83.9 25.3 1,013.9 1.0 NE | 36 2.2 ENE | 69 274 -9 0.1 0.5 65.0 3.8 0.16
9/30/22 - 0620 63.9 63.5 85 59.2 0.00 84.0 25.3 1,013.9 1.1 ENE | 58 3.3 ENE | 60 273 -8 0.3 0.5 65.0 3.8 0.16
9/30/22 - 0610 63.8 63.5 85 59.2 0.00 84.1 25.3 1,013.8 1.4 ENE | 76 3.3 ENE | 75 273 -7 0.5 0.4 65.0 3.8 0.16
9/30/22 - 0600 63.9 63.6 85 59.3 0.00 84.2 25.3 1,013.8 1.3 NE | 55 3.1 NE | 37 273 -6 0.4 0.3 65.0 3.8 0.16
9/30/22 - 0550 64.1 63.6 85 59.4 0.00 84.3 25.3 1,013.8 1.1 ENE | 58 2.7 E | 93 269 -6 0.2 0.3 65.0 3.8 0.16
9/30/22 - 0540 64.1 63.8 86 59.6 0.00 84.4 25.3 1,013.8 0.4 NE | 56 1.7 NE | 52 269 -6 0.1 0.2 64.9 3.8 0.16
9/30/22 - 0530 64.0 63.7 86 59.7 0.00 84.4 25.3 1,013.9 0.8 NE | 38 2.1 ENE | 75 277 -6 0.1 0.2 64.9 3.8 0.16
9/30/22 - 0520 63.9 63.6 87 59.9 0.00 84.6 25.3 1,013.9 0.9 NE | 47 2.0 N | 10 286 -4 0.1 0.2 64.7 3.8 0.16
9/30/22 - 0510 63.8 63.4 88 59.8 0.00 84.7 25.3 1,013.8 0.9 NE | 37 2.8 NNE | 20 291 -5 0.0 0.2 64.3 3.8 0.16
9/30/22 - 0500 63.6 62.9 88 59.8 0.00 84.8 25.3 1,013.7 0.8 NE | 47 2.1 E | 96 296 -4 0.1 0.2 63.7 3.8 0.16
9/30/22 - 0450 63.1 62.3 88 59.3 0.00 84.9 25.3 1,013.8 0.8 ENE | 77 2.3 ENE | 71 299 -3 0.2 0.2 62.7 3.8 0.16
9/30/22 - 0440 62.4 61.3 89 58.7 0.00 85.0 25.3 1,013.8 0.9 ESE | 104 2.1 E | 93 298 -4 0.2 0.1 60.0 3.8 0.16
9/30/22 - 0430 61.3 60.0 89 57.5 0.00 85.1 25.3 1,013.8 0.5 SE | 128 1.7 ESE | 116 307 -4 0.0 0.1 56.7 3.8 0.16
9/30/22 - 0420 60.0 59.2 89 56.3 0.00 85.2 25.3 1,013.8 0.3 SSE | 166 0.9 S | 172 313 -5 0.0 0.1 53.6 3.8 0.16
9/30/22 - 0410 59.8 59.4 89 56.4 0.00 85.3 25.3 1,013.8 0.1 SSE | 162 0.8 SSE | 158 318 -18 0.0 0.1 52.6 3.8 0.16
9/30/22 - 0400 60.0 59.4 89 56.3 0.00 85.3 25.3 1,013.8 0.3 SSE | 162 1.0 S | 178 315 -20 0.0 0.1 52.7 3.8 0.16
9/30/22 - 0350 60.2 59.0 88 56.2 0.00 85.3 25.3 1,013.9 0.2 SSE | 160 1.2 S | 178 313 -20 0.0 0.1 52.7 3.8 0.16
9/30/22 - 0340 60.2 59.6 89 56.7 0.00 85.4 25.3 1,013.9 0.4 SSE | 156 1.1 SSE | 157 309 -21 0.0 0.1 52.9 3.8 0.16
9/30/22 - 0330 60.0 59.4 89 56.2 0.00 85.3 25.3 1,014.0 0.6 SSE | 151 1.3 SSE | 159 304 -22 0.0 0.1 52.9 3.8 0.16
9/30/22 - 0320 60.3 59.8 88 56.6 0.00 85.3 25.3 1,014.1 0.2 SSE | 166 1.1 SE | 141 302 -21 0.0 0.1 52.8 3.8 0.16
9/30/22 - 0310 60.5 60.0 88 56.9 0.00 85.3 25.3 1,014.2 0.1 SSE | 164 0.5 SSE | 162 296 -22 0.0 0.1 52.9 3.8 0.16
9/30/22 - 0300 60.6 60.2 88 57.0 0.00 85.3 25.3 1,014.2 0.1 SSE | 157 0.7 SSE | 156 291 -22 0.0 0.1 53.0 3.8 0.16
9/30/22 - 0250 60.7 60.3 88 57.0 0.00 85.3 25.4 1,014.3 0.0 SSE | 158 0.5 SSE | 158 284 -23 0.0 0.1 53.1 3.8 0.16
9/30/22 - 0240 61.1 60.5 88 57.5 0.00 85.3 25.3 1,014.2 0.1 SSE | 147 0.9 SE | 143 276 -24 0.0 0.1 53.2 3.8 0.16
9/30/22 - 0230 61.2 60.5 88 57.4 0.00 85.1 25.3 1,014.3 0.0 S | 170 0.2 S | 170 268 -24 0.0 0.1 53.4 3.8 0.16
9/30/22 - 0220 61.2 60.3 88 57.1 0.00 85.2 25.4 1,014.2 0.1 S | 170 0.9 SSE | 156 261 -26 0.0 0.1 53.5 3.8 0.16
9/30/22 - 0210 61.8 61.2 88 57.8 0.00 85.2 25.3 1,014.1 0.3 S | 172 1.0 S | 177 258 -27 0.1 0.1 53.5 3.8 0.16
9/30/22 - 0200 62.1 61.6 88 58.1 0.00 85.2 25.4 1,014.0 0.2 S | 185 1.1 S | 189 256 -28 0.0 0.0 53.8 3.8 0.16
9/30/22 - 0150 62.5 61.7 87 58.0 0.00 85.2 25.4 1,014.0 0.0 SSE | 168 0.6 SSE | 168 253 -30 0.0 0.0 54.4 3.8 0.16
9/30/22 - 0140 62.7 62.3 87 58.6 0.00 85.2 25.4 1,013.9 0.0 S | 175 0.0 S | 175 251 -33 0.0 0.0 55.0 3.8 0.16
9/30/22 - 0130 63.2 62.6 86 58.6 0.00 85.2 25.4 1,013.9 0.3 S | 180 1.2 S | 187 249 -35 0.1 0.0 55.6 3.8 0.16
9/30/22 - 0120 63.8 63.0 85 59.0 0.00 85.2 25.4 1,013.9 0.3 S | 191 1.0 S | 190 244 -40 0.2 0.0 55.8 3.8 0.16
9/30/22 - 0110 63.6 63.3 85 58.8 0.00 85.3 25.4 1,014.0 0.0 SSE | 161 0.6 SSE | 161 242 -48 0.0 0.0 56.0 3.8 0.16
9/30/22 - 0100 64.0 63.3 84 58.8 0.00 85.4 25.4 1,014.0 0.1 SE | 132 0.9 SE | 133 240 -53 0.0 14.2 56.4 3.8 0.16
9/30/22 - 0050 64.1 63.8 83 58.8 0.00 85.4 25.4 1,014.1 0.1 SE | 128 0.7 ESE | 117 241 -58 0.0 14.2 56.8 3.8 0.16
9/30/22 - 0040 64.5 63.8 82 58.5 0.00 85.4 25.4 1,014.2 0.0 N | 0 0.0 SE | 137 250 -63 0.0 14.2 57.3 3.8 0.16
9/30/22 - 0030 65.0 64.4 81 58.6 0.00 85.4 25.4 1,014.2 0.0 SSE | 148 0.1 SSE | 148 264 -66 0.0 14.2 58.0 3.8 0.16
9/30/22 - 0020 65.5 64.9 79 58.3 0.00 85.5 25.4 1,014.2 0.1 SE | 136 0.8 SE | 136 272 -68 0.0 14.2 59.0 3.8 0.16
9/30/22 - 0010 66.5 65.4 77 58.5 0.00 85.4 25.4 1,014.3 0.2 NE | 56 1.8 N | 2 274 -70 0.0 14.2 60.0 3.8 0.16
9/30/22 - 0000 66.8 66.3 76 59.0 0.00 85.5 25.4 1,014.3 0.3 NNE | 26 1.2 NNE | 18 272 -71 0.0 14.2 61.0 3.8 0.16
9/29/22 - 2350 67.1 66.7 76 59.0 0.00 85.5 25.4 1,014.3 0.7 NNE | 28 2.9 NNE | 30 271 -72 0.1 14.2 61.5 3.8 0.16
9/29/22 - 2340 67.4 67.0 75 59.0 0.00 85.5 25.4 1,014.3 0.5 NNE | 33 1.7 NNE | 22 270 -73 0.0 14.2 62.1 3.8 0.16
9/29/22 - 2330 67.8 67.2 75 59.0 0.00 85.4 25.4 1,014.4 0.7 NE | 39 2.1 NNE | 29 270 -73 0.1 14.2 62.5 3.8 0.16
9/29/22 - 2320 67.9 67.4 74 59.2 0.00 85.4 25.4 1,014.4 0.6 NNE | 29 2.5 N | 5 270 -73 0.0 14.2 63.0 3.8 0.16
9/29/22 - 2310 68.2 67.8 74 59.3 0.00 85.4 25.4 1,014.4 0.8 NNE | 32 1.6 NNE | 22 270 -73 0.0 14.2 63.4 3.8 0.16
9/29/22 - 2300 68.4 68.0 73 59.3 0.00 85.4 25.4 1,014.3 0.8 NNE | 32 2.0 NNE | 22 270 -73 0.0 14.2 64.1 3.8 0.16
9/29/22 - 2250 68.7 68.4 73 59.5 0.00 85.4 25.4 1,014.2 1.0 NNE | 27 2.1 NNE | 24 269 -74 0.1 14.2 64.4 3.8 0.16
9/29/22 - 2240 69.0 68.5 72 59.5 0.00 85.4 25.4 1,014.2 1.1 NNE | 30 2.2 NNE | 30 269 -75 0.1 14.2 64.5 3.8 0.16
9/29/22 - 2230 69.4 68.8 71 59.5 0.00 85.9 25.4 1,014.2 0.9 NE | 35 2.0 NE | 39 269 -75 0.0 14.2 64.9 3.8 0.16
9/29/22 - 2220 69.8 69.2 70 59.5 0.00 86.0 25.4 1,014.1 0.8 NE | 36 1.8 E | 81 269 -75 0.0 14.2 65.3 3.8 0.16
9/29/22 - 2210 70.1 69.6 69 59.5 0.00 86.0 25.4 1,014.0 0.7 NE | 37 2.0 NNE | 21 268 -76 0.0 14.2 65.6 3.8 0.16
9/29/22 - 2200 70.4 70.0 69 59.5 0.00 86.0 25.4 1,014.1 0.6 NNE | 32 1.8 NE | 55 268 -77 0.0 14.2 66.4 3.8 0.16
9/29/22 - 2150 70.9 70.3 68 59.6 0.00 86.1 25.4 1,014.0 0.8 NE | 53 2.0 E | 92 268 -77 0.1 14.2 66.9 3.8 0.16
9/29/22 - 2140 71.5 70.8 67 59.7 0.00 86.1 25.4 1,014.1 1.0 NE | 53 2.3 NE | 44 268 -77 0.2 14.2 66.2 3.8 0.16
9/29/22 - 2130 71.8 71.2 66 59.5 0.00 86.0 25.4 1,013.9 0.7 NE | 47 2.0 ENE | 57 268 -77 0.0 14.1 64.8 3.8 0.16
9/29/22 - 2120 71.8 71.4 64 58.8 0.00 85.9 25.4 1,013.9 0.7 NE | 47 2.4 ENE | 61 267 -77 0.0 14.1 63.7 3.8 0.16
9/29/22 - 2110 72.2 71.4 56 55.2 0.00 85.8 25.4 1,013.8 0.1 ENE | 78 1.2 E | 96 266 -74 0.0 14.1 62.7 3.8 0.16
9/29/22 - 2100 72.2 71.6 51 52.9 0.00 85.7 25.4 1,013.6 0.1 ESE | 102 0.5 E | 82 266 -73 0.0 14.1 63.1 3.8 0.16
9/29/22 - 2050 73.0 71.8 44 49.3 0.00 85.6 25.5 1,013.5 0.2 SSW | 203 0.9 SW | 221 265 -73 0.0 14.1 64.2 3.8 0.16
9/29/22 - 2040 74.5 72.9 42 49.2 0.00 85.6 25.4 1,013.4 0.5 SE | 132 1.4 SSW | 210 265 -75 0.0 14.1 65.6 3.8 0.16
9/29/22 - 2030 76.0 74.5 40 49.4 0.00 85.7 25.5 1,013.4 0.3 SSE | 162 1.3 SSW | 192 264 -77 0.0 14.1 66.9 3.8 0.16
9/29/22 - 2020 76.0 75.3 39 49.2 0.00 85.6 25.5 1,013.3 1.5 S | 180 2.9 S | 179 264 -78 0.7 14.1 68.5 3.8 0.16
9/29/22 - 2010 77.5 76.0 38 49.1 0.00 85.5 25.4 1,013.2 0.8 SSW | 199 2.5 SSW | 203 264 -80 0.6 14.0 70.9 3.8 0.16
9/29/22 - 2000 78.0 77.2 36 49.0 0.00 85.5 25.4 1,013.1 2.0 SW | 227 3.7 WSW | 253 264 -84 0.8 13.9 73.2 3.8 0.16
9/29/22 - 1950 78.9 78.0 35 48.8 0.00 85.3 25.4 1,013.1 2.6 WSW | 239 4.8 WSW | 247 264 -86 1.5 13.8 74.4 3.8 0.16
9/29/22 - 1940 79.4 78.7 35 48.6 0.00 85.3 25.4 1,013.1 4.1 WSW | 241 7.0 W | 262 264 -86 2.8 13.5 75.1 3.8 0.16
9/29/22 - 1930 80.0 79.2 33 48.4 0.00 85.2 25.4 1,013.1 3.3 SW | 234 5.9 SSW | 194 264 -87 2.3 13.0 76.1 3.8 0.16
9/29/22 - 1920 80.6 79.9 33 48.2 0.00 85.2 25.4 1,013.0 4.7 WSW | 238 7.7 SW | 231 264 -88 3.2 12.7 77.0 3.8 0.16
9/29/22 - 1910 81.1 80.5 32 48.4 0.00 85.1 25.4 1,013.0 4.1 WSW | 239 6.9 WSW | 253 264 -87 2.8 12.1 77.5 3.8 0.16
9/29/22 - 1900 81.6 81.1 32 48.8 0.00 85.0 25.4 1,013.0 3.4 WSW | 237 6.3 WSW | 245 264 -88 2.4 11.7 77.8 3.8 0.16
9/29/22 - 1850 83.4 81.7 31 49.2 0.00 84.9 25.4 1,013.0 2.2 SW | 221 4.9 SW | 234 264 -87 1.3 11.3 79.4 3.8 0.16
9/29/22 - 1840 84.1 83.4 32 50.8 0.00 84.8 25.4 1,012.9 1.6 WSW | 256 3.7 WNW | 285 264 -86 1.3 11.1 81.5 3.8 0.16
9/29/22 - 1830 84.9 83.9 33 52.5 0.00 84.8 25.4 1,012.9 3.0 W | 270 6.2 WSW | 258 264 -82 2.3 10.8 83.3 3.8 0.16
9/29/22 - 1820 86.0 84.8 33 52.7 0.00 84.6 25.3 1,012.8 0.7 NW | 311 3.4 NW | 311 264 -79 0.7 10.5 85.3 3.8 0.16
9/29/22 - 1810 87.0 86.0 31 52.8 0.00 84.7 25.3 1,012.7 0.9 NNW | 345 3.5 N | 350 264 -55 0.7 10.3 86.9 3.8 0.16
9/29/22 - 1800 87.8 86.8 30 52.7 0.00 84.4 25.3 1,012.7 0.7 NNW | 345 2.6 NNW | 329 263 -37 0.7 10.2 88.3 3.8 0.16
9/29/22 - 1750 88.6 87.5 30 52.9 0.00 84.4 25.3 1,012.7 0.9 NNW | 347 3.3 NNW | 344 263 -16 0.8 10.1 89.5 3.8 0.16
9/29/22 - 1740 89.7 88.1 30 53.2 0.00 84.5 25.3 1,012.8 1.2 NW | 316 5.3 N | 5 263 5 1.5 10.0 90.6 3.8 0.16
9/29/22 - 1730 89.8 89.2 30 54.3 0.00 84.4 25.3 1,012.8 0.6 NNW | 333 2.5 ENE | 70 263 35 1.0 9.7 91.6 3.8 0.16
9/29/22 - 1720 90.9 89.6 30 55.0 0.00 84.3 25.3 1,012.8 1.2 NNW | 339 3.3 NNW | 348 263 58 1.6 9.6 93.0 3.8 0.16
9/29/22 - 1710 91.5 90.5 30 55.3 0.00 84.1 25.3 1,012.8 1.1 NW | 310 4.7 WSW | 240 263 87 1.4 9.3 94.2 3.8 0.16
9/29/22 - 1700 91.8 91.0 30 55.4 0.00 83.9 25.3 1,012.7 0.9 NNW | 331 5.0 NNE | 15 263 112 1.0 9.1 95.4 3.8 0.16
9/29/22 - 1650 93.3 91.8 28 55.4 0.00 84.1 25.3 1,012.6 1.0 NNW | 342 3.1 N | 354 263 136 0.9 8.9 96.3 3.8 0.16
9/29/22 - 1640 94.8 93.0 28 55.6 0.00 83.9 25.2 1,012.7 1.7 NW | 304 4.0 NW | 308 263 158 1.8 8.8 97.8 3.8 0.16
9/29/22 - 1630 95.2 94.8 27 55.9 0.00 84.2 25.2 1,012.6 0.9 NW | 318 3.8 WSW | 246 263 178 1.5 8.4 99.1 3.8 0.16
9/29/22 - 1620 95.7 95.0 27 55.9 0.00 84.2 25.2 1,012.7 1.1 WNW | 303 4.4 WNW | 301 263 202 1.2 8.2 99.9 3.8 0.16
9/29/22 - 1610 95.7 94.8 27 56.0 0.00 84.2 25.2 1,012.7 1.9 WNW | 289 6.6 W | 272 263 218 2.2 8.0 100.5 3.8 0.16
9/29/22 - 1600 95.5 94.5 27 55.7 0.00 84.1 25.1 1,012.7 2.5 W | 280 7.0 WSW | 238 263 242 2.6 7.6 101.6 3.8 0.16
9/29/22 - 1550 96.4 94.7 26 55.6 0.00 84.1 25.1 1,012.8 2.4 NW | 310 7.2 WSW | 258 263 277 2.8 7.2 103.1 3.8 0.16
9/29/22 - 1540 97.5 96.1 26 56.4 0.00 84.0 25.1 1,012.8 1.8 WNW | 283 6.0 WNW | 293 263 286 1.7 6.8 104.0 3.8 0.16
9/29/22 - 1530 99.2 97.5 24 55.4 0.00 84.0 25.1 1,012.8 1.8 WSW | 258 7.8 W | 262 263 306 2.1 6.5 104.8 3.8 0.16
9/29/22 - 1520 99.1 98.0 23 54.4 0.00 83.9 25.1 1,012.9 1.0 WNW | 290 3.6 NW | 305 262 312 1.8 6.1 105.1 3.8 0.16
9/29/22 - 1510 98.3 97.1 24 54.4 0.00 83.9 25.1 1,013.0 1.7 NE | 34 3.8 NE | 35 262 342 0.8 5.8 105.4 3.8 0.16
9/29/22 - 1500 97.8 97.0 24 54.3 0.00 83.8 25.1 1,013.0 1.8 NNE | 33 4.2 NE | 41 262 364 1.0 5.7 105.3 3.8 0.16
9/29/22 - 1450 97.6 96.8 24 54.7 0.00 83.9 25.1 1,013.1 2.2 NE | 45 4.3 NE | 41 262 373 1.3 5.5 106.1 3.8 0.16
9/29/22 - 1440 96.9 96.0 25 55.0 0.00 83.8 25.1 1,013.2 2.4 NNE | 30 5.0 NNE | 14 262 386 1.2 5.3 106.2 3.8 0.16
9/29/22 - 1430 97.1 95.8 26 56.0 0.00 83.7 25.1 1,013.3 2.9 NNE | 27 6.4 NNE | 14 262 402 1.3 5.1 106.3 3.8 0.16
9/29/22 - 1420 96.9 96.0 27 56.8 0.00 83.7 25.1 1,013.5 2.3 NE | 34 5.3 E | 79 263 414 1.1 4.9 106.3 3.8 0.16
9/29/22 - 1410 97.1 96.5 27 57.4 0.00 83.6 25.1 1,013.7 2.0 NNE | 31 4.8 NNW | 333 263 422 0.9 4.7 106.6 3.8 0.16
9/29/22 - 1400 96.5 95.0 28 57.2 0.00 83.6 25.1 1,013.9 2.3 NE | 50 5.3 SE | 127 263 434 1.1 4.5 105.9 3.8 0.16
9/29/22 - 1350 96.1 94.6 28 56.9 0.00 83.6 25.0 1,014.2 2.7 NE | 54 5.8 E | 79 263 444 1.5 4.4 105.2 3.8 0.16
9/29/22 - 1340 95.5 94.4 28 56.5 0.00 83.6 25.0 1,014.3 2.6 E | 79 5.5 E | 100 263 448 1.7 4.1 106.8 3.8 0.16
9/29/22 - 1330 96.3 94.0 28 56.6 0.00 83.5 25.0 1,014.4 2.6 E | 86 5.1 SE | 142 263 475 1.5 3.8 107.8 3.8 0.16
9/29/22 - 1320 95.8 95.0 28 57.2 0.00 83.5 25.0 1,014.6 2.2 NE | 50 3.8 SE | 134 263 472 1.3 3.6 109.8 3.8 0.16
9/29/22 - 1310 95.9 94.9 28 56.8 0.00 83.5 25.0 1,014.7 1.8 N | 9 4.9 NNE | 12 263 460 1.1 3.4 111.2 3.8 0.16
9/29/22 - 1300 96.0 95.0 28 57.0 0.00 83.5 25.0 1,014.7 1.4 N | 355 4.6 N | 0 263 479 1.4 3.2 112.6 3.8 0.16
9/29/22 - 1250 95.3 93.7 29 57.4 0.00 83.5 24.9 1,014.9 1.5 NNE | 12 4.1 N | 5 263 475 0.9 3.0 112.1 3.8 0.16
9/29/22 - 1240 93.6 92.7 29 56.7 0.00 83.5 25.0 1,015.0 1.6 ESE | 117 3.5 ESE | 108 263 460 1.1 2.8 110.1 3.8 0.16
9/29/22 - 1230 94.0 92.7 29 56.5 0.00 83.5 25.0 1,015.1 2.2 ESE | 114 4.8 SSE | 161 263 470 1.7 2.6 109.9 3.8 0.16
9/29/22 - 1220 94.9 92.8 28 56.1 0.00 83.5 25.0 1,015.3 1.1 ENE | 74 4.0 SE | 131 263 472 1.0 2.3 107.5 3.8 0.16
9/29/22 - 1210 93.1 92.4 29 55.6 0.00 83.5 25.0 1,015.5 1.5 NE | 51 4.1 N | 5 263 478 1.1 2.2 105.6 3.8 0.16
9/29/22 - 1200 92.7 90.9 28 54.1 0.00 83.2 24.9 1,015.6 1.3 NE | 40 5.8 E | 87 263 470 0.8 2.0 103.3 3.8 0.16
9/29/22 - 1150 91.9 90.8 28 53.5 0.00 83.1 25.0 1,015.7 1.7 NE | 49 5.0 E | 81 263 463 0.9 1.8 101.7 3.8 0.16
9/29/22 - 1140 91.8 89.7 28 53.1 0.00 83.1 25.0 1,015.8 1.1 SE | 137 3.6 SSW | 192 263 463 1.0 1.7 100.2 3.8 0.16
9/29/22 - 1130 90.8 89.0 28 52.6 0.00 83.1 25.0 1,016.0 1.4 ENE | 67 3.9 SE | 131 263 447 1.0 1.5 99.2 3.8 0.16
9/29/22 - 1120 90.4 89.7 28 52.1 0.00 83.2 25.0 1,016.1 1.1 NNW | 348 4.2 SE | 127 263 442 0.9 1.4 97.7 3.8 0.16
9/29/22 - 1110 89.9 88.8 28 52.3 0.00 83.2 25.0 1,016.1 1.2 ENE | 75 4.1 SE | 136 263 432 0.8 1.2 96.2 3.8 0.16
9/29/22 - 1100 89.8 88.0 29 52.8 0.00 83.3 25.0 1,016.3 0.9 NE | 36 2.7 E | 97 263 419 0.9 1.1 94.5 3.8 0.16
9/29/22 - 1050 88.1 87.2 30 52.8 0.00 83.2 25.0 1,016.4 1.2 N | 352 2.7 W | 270 263 407 1.0 0.9 93.2 3.8 0.16
9/29/22 - 1040 87.4 86.7 31 53.1 0.00 83.3 25.0 1,016.5 1.1 NNW | 330 2.7 NNE | 24 263 395 0.8 0.8 91.4 3.8 0.16
9/29/22 - 1030 87.1 85.0 32 53.2 0.00 83.4 25.1 1,016.6 0.6 NE | 42 2.0 NNE | 12 263 380 0.6 0.6 89.7 3.8 0.16
9/29/22 - 1020 85.0 83.6 34 53.3 0.00 83.5 25.1 1,016.7 1.1 NNE | 33 2.8 NE | 34 263 362 0.8 0.5 87.9 3.8 0.16
9/29/22 - 1010 84.4 83.6 35 53.5 0.00 83.5 25.1 1,016.7 1.1 NE | 37 2.9 NNE | 20 264 349 0.4 0.4 86.1 3.8 0.16
9/29/22 - 1000 83.6 82.0 38 54.6 0.00 83.5 25.1 1,016.8 0.8 NE | 40 2.6 NE | 54 264 331 0.3 0.3 83.8 3.8 0.16
9/29/22 - 0950 83.0 82.4 39 55.2 0.00 83.6 25.1 1,016.8 0.8 N | 357 2.6 N | 7 264 316 0.6 0.3 82.1 3.8 0.16
9/29/22 - 0940 82.4 80.4 41 55.7 0.00 83.6 25.2 1,016.9 0.7 E | 88 2.9 ESE | 107 264 292 0.6 0.2 80.2 3.8 0.16
9/29/22 - 0930 80.6 79.7 44 56.5 0.00 83.7 25.2 1,016.9 0.9 NNE | 26 2.2 N | 3 265 279 0.1 0.1 78.1 3.8 0.16
9/29/22 - 0920 79.8 78.5 47 57.1 0.00 83.7 25.2 1,016.9 0.4 NNE | 32 1.8 NNE | 18 266 261 0.2 0.1 76.0 3.8 0.16
9/29/22 - 0910 78.7 77.8 48 57.1 0.00 83.7 25.2 1,016.9 0.8 NNE | 33 1.8 NE | 40 266 239 0.1 0.1 74.1 3.8 0.16
9/29/22 - 0900 78.1 77.0 49 57.1 0.00 83.9 25.2 1,016.9 0.7 ENE | 68 1.8 E | 90 266 220 0.1 0.0 71.9 3.8 0.16
9/29/22 - 0850 77.7 77.2 49 57.0 0.00 84.0 25.3 1,016.8 0.6 NE | 52 1.7 E | 83 267 198 0.0 0.0 69.5 3.8 0.16
9/29/22 - 0840 77.6 76.0 50 56.8 0.00 83.9 25.3 1,016.8 0.1 E | 79 0.6 ENE | 68 268 178 0.0 0.0 66.7 3.8 0.16
9/29/22 - 0830 76.0 74.6 51 56.5 0.00 83.8 25.3 1,016.8 0.1 E | 85 1.0 ESE | 113 268 152 0.0 0.0 63.8 3.8 0.16
9/29/22 - 0820 74.4 71.3 56 56.0 0.00 83.7 25.3 1,016.7 0.1 E | 95 0.8 E | 98 269 127 0.0 0.0 61.6 3.8 0.16
9/29/22 - 0810 71.3 70.3 59 55.6 0.00 83.6 25.3 1,016.7 0.6 ESE | 118 1.3 E | 84 269 102 0.0 0.0 59.6 3.8 0.16
9/29/22 - 0800 71.3 68.4 60 55.5 0.00 83.7 25.3 1,016.6 0.1 SE | 136 0.9 SE | 135 269 76 0.0 0.0 57.7 3.8 0.16
9/29/22 - 0750 68.4 65.7 67 55.4 0.00 83.7 25.3 1,016.5 0.0 ESE | 122 0.4 SE | 129 270 7 0.0 0.0 56.3 3.8 0.16
9/29/22 - 0740 65.9 63.6 72 55.6 0.00 83.8 25.3 1,016.5 0.0 ESE | 109 0.5 ESE | 108 271 -34 0.0 0.0 55.2 3.8 0.16
9/29/22 - 0730 63.7 62.1 76 55.1 0.00 83.8 25.3 1,016.5 0.0 N | 0 0.0 ENE | 78 271 -14 0.0 0.0 54.4 3.8 0.16
9/29/22 - 0720 62.1 61.4 78 55.0 0.00 83.9 25.3 1,016.4 0.2 SE | 136 0.8 SSE | 154 272 -36 0.0 0.0 53.6 3.8 0.16
9/29/22 - 0710 61.6 60.9 78 54.5 0.00 84.1 25.3 1,016.5 0.0 N | 0 0.0 S | 178 272 -40 0.0 0.0 53.4 3.8 0.16
9/29/22 - 0700 61.3 60.9 78 54.3 0.00 84.1 25.3 1,016.5 0.1 S | 184 0.7 S | 181 272 -44 0.0 0.0 53.2 3.8 0.16
9/29/22 - 0650 61.2 60.9 77 54.0 0.00 84.2 25.3 1,016.4 0.3 SSE | 156 0.9 S | 181 272 -49 0.0 0.0 53.3 3.8 0.16
9/29/22 - 0640 61.1 60.8 78 54.1 0.00 84.3 25.3 1,016.4 0.4 SSW | 210 1.3 SW | 216 271 -49 0.0 0.0 53.4 3.8 0.16
9/29/22 - 0630 61.3 60.8 77 53.9 0.00 84.4 25.3 1,016.4 0.0 N | 0 0.0 S | 179 272 -51 0.0 0.0 53.6 3.8 0.16
9/29/22 - 0620 61.7 61.0 77 54.0 0.00 84.5 25.3 1,016.3 0.3 SSE | 156 1.0 SSE | 163 272 -52 0.0 0.0 53.6 3.8 0.16
9/29/22 - 0610 61.6 61.3 77 54.1 0.00 84.7 25.3 1,016.2 0.3 SSE | 158 0.9 S | 184 271 -51 0.0 0.0 53.8 3.8 0.16
9/29/22 - 0600 61.6 61.3 76 53.8 0.00 84.8 25.3 1,016.2 0.0 N | 0 0.0 SSE | 147 270 -50 0.0 0.0 54.0 3.8 0.16
9/29/22 - 0550 61.8 61.3 75 53.5 0.00 85.0 25.3 1,016.3 0.1 S | 172 0.7 S | 175 270 -51 0.0 0.0 54.1 3.8 0.16
9/29/22 - 0540 61.9 61.5 74 53.2 0.00 85.0 25.3 1,016.4 0.5 SSE | 166 1.4 SSW | 200 270 -51 0.0 0.0 54.2 3.8 0.16
9/29/22 - 0530 61.9 61.4 75 53.6 0.00 85.2 25.4 1,016.3 0.5 SW | 218 1.4 SSW | 201 270 -50 0.0 0.0 54.5 3.8 0.16
9/29/22 - 0520 61.9 61.4 75 53.7 0.00 85.2 25.3 1,016.3 0.1 SSW | 195 1.2 SSW | 197 270 -52 0.0 0.0 54.8 3.8 0.16
9/29/22 - 0510 62.1 61.5 74 53.6 0.00 85.3 25.4 1,016.4 0.2 SE | 145 0.8 SE | 140 270 -51 0.0 0.0 55.0 3.8 0.16
9/29/22 - 0500 62.1 61.6 74 53.4 0.00 85.3 25.3 1,016.3 0.1 SE | 144 0.8 SE | 142 270 -52 0.0 0.0 55.1 3.8 0.16
9/29/22 - 0450 62.6 61.8 72 53.2 0.00 85.4 25.4 1,016.4 0.3 SE | 143 1.1 SE | 134 270 -53 0.0 0.0 54.9 3.8 0.16
9/29/22 - 0440 62.8 62.4 73 54.1 0.00 85.4 25.4 1,016.3 0.1 SSE | 151 0.8 SE | 139 270 -52 0.0 0.0 55.0 3.8 0.16
9/29/22 - 0430 62.8 62.4 73 54.0 0.00 85.6 25.4 1,016.3 0.0 SSW | 198 0.8 SSW | 198 270 -52 0.0 0.0 55.1 3.8 0.16
9/29/22 - 0420 63.1 62.7 73 54.3 0.00 85.6 25.4 1,016.3 0.0 S | 174 0.4 S | 174 270 -52 0.0 0.0 55.2 3.8 0.16
9/29/22 - 0410 63.3 62.8 73 54.3 0.00 85.7 25.4 1,016.2 0.2 SSE | 156 0.9 SSE | 147 270 -53 0.0 0.0 55.4 3.8 0.16
9/29/22 - 0400 63.3 63.0 73 54.2 0.00 85.7 25.4 1,016.3 0.1 SSE | 158 0.9 SSE | 164 270 -54 0.0 0.0 55.5 3.8 0.16
9/29/22 - 0350 63.4 63.1 72 54.2 0.00 85.7 25.4 1,016.3 0.4 S | 180 1.1 S | 187 270 -53 0.0 0.0 55.5 3.8 0.16
9/29/22 - 0340 63.5 63.2 72 54.2 0.00 85.7 25.4 1,016.4 0.3 S | 176 1.0 S | 177 269 -53 0.0 0.0 55.5 3.8 0.16
9/29/22 - 0330 64.0 63.5 72 54.7 0.00 85.7 25.4 1,016.4 0.1 SSE | 149 0.9 SSE | 149 270 -54 0.0 0.0 55.8 3.8 0.16
9/29/22 - 0320 63.9 63.3 72 54.5 0.00 85.7 25.4 1,016.4 0.0 N | 0 0.0 SSW | 197 269 -53 0.0 0.0 56.0 3.8 0.16
9/29/22 - 0310 63.8 63.3 71 54.2 0.00 85.6 25.4 1,016.5 0.1 S | 188 0.8 SSW | 192 269 -53 0.0 0.0 56.1 3.8 0.16
9/29/22 - 0300 64.4 63.5 70 54.1 0.00 85.7 25.4 1,016.4 0.3 SE | 146 1.2 SE | 142 269 -54 0.0 0.0 56.3 3.8 0.16
9/29/22 - 0250 64.0 63.6 70 53.9 0.00 85.6 25.4 1,016.5 0.1 S | 186 0.6 S | 182 269 -54 0.0 0.0 56.7 3.8 0.16
9/29/22 - 0240 64.6 63.8 69 53.6 0.00 85.6 25.4 1,016.5 0.2 SE | 139 0.8 SE | 139 268 -56 0.0 0.0 56.9 3.8 0.16
9/29/22 - 0230 64.8 64.3 68 53.8 0.00 85.6 25.4 1,016.5 0.2 S | 180 0.7 SSW | 206 268 -56 0.0 0.0 57.2 3.8 0.16
9/29/22 - 0220 64.8 64.1 67 53.3 0.00 85.6 25.4 1,016.5 0.7 SSE | 147 1.6 SE | 143 268 -57 0.0 0.0 57.3 3.8 0.16
9/29/22 - 0210 65.1 64.6 67 53.8 0.00 85.5 25.5 1,016.5 0.7 SSE | 158 1.4 SSE | 151 268 -57 0.0 0.0 57.0 3.8 0.16
9/29/22 - 0200 65.1 64.4 68 53.9 0.00 85.6 25.4 1,016.6 0.5 SSE | 151 1.1 SE | 144 268 -57 0.0 0.0 57.0 3.8 0.16
9/29/22 - 0150 65.4 64.6 67 53.8 0.00 85.7 25.4 1,016.6 0.3 SSE | 168 0.7 S | 173 268 -57 0.0 0.0 57.2 3.8 0.16
9/29/22 - 0140 65.5 64.9 67 54.0 0.00 85.7 25.5 1,016.6 0.2 SSE | 158 1.0 SSE | 149 268 -57 0.0 0.0 57.4 3.8 0.16
9/29/22 - 0130 65.6 64.9 67 53.9 0.00 85.6 25.4 1,016.5 0.4 SSE | 158 1.3 SE | 140 268 -58 0.0 0.0 57.7 3.8 0.16
9/29/22 - 0120 66.0 65.5 66 54.1 0.00 85.6 25.4 1,016.5 0.2 S | 171 0.8 S | 173 268 -58 0.0 0.0 57.8 3.8 0.16
9/29/22 - 0110 66.6 65.9 65 54.2 0.00 85.6 25.5 1,016.5 0.2 SSE | 152 1.1 SE | 141 268 -58 0.0 0.0 57.9 3.8 0.16
9/29/22 - 0100 66.7 66.3 64 54.2 0.00 85.6 25.5 1,016.6 0.3 SSE | 152 1.0 SSE | 157 268 -59 0.0 12.4 58.0 3.8 0.16
9/29/22 - 0050 67.1 66.7 65 54.6 0.00 85.7 25.5 1,016.7 0.1 SSE | 161 0.7 SE | 145 268 -58 0.0 12.4 58.4 3.8 0.16
9/29/22 - 0040 67.0 66.7 65 54.9 0.00 85.8 25.5 1,016.7 0.1 SSE | 159 0.8 SSE | 168 268 -59 0.0 12.4 58.6 3.8 0.16
9/29/22 - 0030 67.0 66.6 66 54.9 0.00 85.7 25.5 1,016.7 0.2 SSE | 157 0.9 SSE | 159 268 -60 0.0 12.4 58.7 3.8 0.16
9/29/22 - 0020 67.3 66.7 65 55.0 0.00 85.7 25.5 1,016.8 0.2 SSE | 165 0.9 SSE | 168 268 -60 0.0 12.4 58.9 3.8 0.16
9/29/22 - 0010 67.6 67.1 65 55.0 0.00 85.7 25.5 1,016.8 0.2 SSE | 160 0.9 S | 173 268 -60 0.0 12.4 59.2 3.8 0.16
9/29/22 - 0000 67.7 67.3 64 55.1 0.00 85.8 25.5 1,016.8 0.0 SSE | 159 0.5 SSE | 153 268 -61 0.0 12.4 59.7 3.8 0.16
9/28/22 - 2350 67.7 67.3 64 54.8 0.00 85.9 25.5 1,016.7 0.7 S | 173 1.4 S | 179 267 -61 0.0 12.4 60.0 3.8 0.16
9/28/22 - 2340 68.1 67.6 63 54.9 0.00 85.9 25.5 1,016.7 0.4 SSW | 198 1.2 SSW | 200 267 -60 0.0 12.4 60.5 3.8 0.16
9/28/22 - 2330 68.2 67.9 63 55.2 0.00 85.8 25.5 1,016.7 0.1 SSW | 198 0.9 SSW | 199 267 -62 0.0 12.4 60.7 3.8 0.16
9/28/22 - 2320 68.9 68.0 61 54.6 0.00 85.9 25.5 1,016.6 0.2 SE | 144 1.2 SE | 134 266 -63 0.0 12.4 61.0 3.8 0.16
9/28/22 - 2310 69.3 68.6 60 54.7 0.00 85.8 25.5 1,016.6 0.4 SSW | 196 1.4 SSW | 212 267 -62 0.0 12.4 61.4 3.8 0.16
9/28/22 - 2300 70.1 69.2 59 54.6 0.00 85.9 25.5 1,016.5 0.0 S | 171 0.5 S | 174 267 -63 0.0 12.4 61.7 3.8 0.16
9/28/22 - 2250 70.4 69.8 58 54.8 0.00 85.8 25.5 1,016.4 0.3 SSW | 197 1.1 S | 179 266 -63 0.0 12.4 62.0 3.8 0.16
9/28/22 - 2240 70.4 70.1 59 55.1 0.00 85.9 25.5 1,016.4 0.0 N | 0 0.0 S | 170 266 -64 0.0 12.4 62.4 3.8 0.16
9/28/22 - 2230 70.8 70.2 59 55.4 0.00 85.9 25.5 1,016.3 0.2 SSE | 164 0.8 SSE | 156 266 -65 0.0 12.4 62.9 3.8 0.16
9/28/22 - 2220 70.9 70.4 59 55.6 0.00 85.8 25.5 1,016.4 0.2 S | 177 1.0 SSW | 200 266 -65 0.0 12.4 63.2 3.8 0.16
9/28/22 - 2210 70.6 70.2 58 54.8 0.00 85.9 25.5 1,016.3 0.2 SSE | 162 1.2 SSE | 148 266 -66 0.0 12.4 63.7 3.8 0.16
9/28/22 - 2200 71.5 70.6 56 54.7 0.00 85.9 25.5 1,016.3 0.1 SE | 140 0.9 SE | 136 266 -67 0.0 12.4 64.3 3.8 0.16
9/28/22 - 2150 72.4 71.4 55 54.8 0.00 85.8 25.5 1,016.2 0.1 SE | 139 0.7 SE | 132 266 -68 0.0 12.4 65.0 3.8 0.16
9/28/22 - 2140 73.2 72.3 54 55.1 0.00 85.9 25.5 1,016.1 0.1 ESE | 118 1.3 ENE | 63 266 -70 0.0 12.4 65.9 3.8 0.16
9/28/22 - 2130 73.7 73.1 53 55.1 0.00 85.8 25.5 1,016.0 0.4 ESE | 109 1.4 SSE | 151 266 -72 0.0 12.4 66.8 3.8 0.16
9/28/22 - 2120 74.3 73.6 52 55.3 0.00 85.9 25.5 1,016.0 0.9 SE | 128 2.0 ESE | 115 266 -73 0.0 12.4 67.6 3.8 0.16
9/28/22 - 2110 74.9 74.2 51 55.3 0.00 85.7 25.5 1,015.9 0.6 ESE | 109 2.3 NE | 48 266 -74 0.0 12.4 68.8 3.8 0.16
9/28/22 - 2100 75.5 74.7 50 55.4 0.00 85.6 25.5 1,015.8 0.5 E | 101 1.7 ESE | 112 266 -75 0.0 12.4 69.8 3.8 0.16
9/28/22 - 2050 75.8 75.3 50 55.4 0.00 85.6 25.5 1,015.6 0.8 ESE | 109 2.2 ESE | 109 265 -77 0.2 12.4 70.9 3.8 0.16
9/28/22 - 2040 76.6 75.8 49 55.4 0.00 85.6 25.5 1,015.5 1.2 SE | 125 2.9 SE | 139 266 -77 0.2 12.4 71.7 3.8 0.16
9/28/22 - 2030 77.6 76.5 47 55.4 0.00 85.5 25.5 1,015.4 0.5 E | 94 1.9 SE | 133 265 -78 0.2 12.3 72.8 3.8 0.16
9/28/22 - 2020 78.0 77.5 47 55.8 0.00 85.4 25.5 1,015.3 0.6 ENE | 60 1.8 SE | 143 265 -79 0.1 12.3 73.7 3.8 0.16
9/28/22 - 2010 79.0 78.0 46 56.0 0.00 85.3 25.5 1,015.1 1.2 E | 89 3.6 E | 85 265 -81 0.2 12.3 74.6 3.8 0.16
9/28/22 - 2000 79.8 78.9 46 56.6 0.00 85.2 25.5 1,014.9 1.1 ENE | 63 3.1 SSW | 197 265 -82 0.4 12.2 75.4 3.8 0.16
9/28/22 - 1950 81.1 79.7 45 57.1 0.00 85.2 25.5 1,014.7 0.7 ENE | 64 2.9 NE | 40 264 -84 0.2 12.2 76.2 3.8 0.16
9/28/22 - 1940 82.2 81.1 43 57.2 0.00 85.0 25.5 1,014.5 0.4 NE | 50 2.8 SSE | 151 264 -85 0.1 12.2 77.4 3.8 0.16
9/28/22 - 1930 83.4 82.2 42 57.3 0.00 84.9 25.5 1,014.4 1.3 NE | 41 4.1 ENE | 73 264 -86 0.3 12.1 77.7 3.8 0.16
9/28/22 - 1920 83.6 83.3 40 57.0 0.00 84.8 25.5 1,014.2 0.9 NE | 55 2.1 NE | 48 264 -86 0.1 12.1 76.9 3.8 0.16
9/28/22 - 1910 84.5 83.6 34 52.4 0.00 84.8 25.4 1,013.9 0.1 NE | 52 1.8 NNE | 14 264 -84 0.0 12.1 77.6 3.8 0.16
9/28/22 - 1900 86.4 84.4 30 50.5 0.00 84.7 25.4 1,013.8 0.3 SE | 124 1.2 SE | 139 263 -85 0.0 12.1 80.1 3.8 0.16
9/28/22 - 1850 89.2 86.5 27 50.0 0.00 84.6 25.4 1,013.7 0.2 S | 181 1.4 SSW | 212 263 -85 0.0 12.1 83.2 3.8 0.16
9/28/22 - 1840 90.1 89.1 26 50.2 0.00 84.5 25.4 1,013.7 0.2 WNW | 303 1.5 WSW | 254 262 -88 0.1 12.0 85.9 3.8 0.16
9/28/22 - 1830 91.0 90.0 25 50.0 0.00 84.6 25.4 1,013.6 0.9 WNW | 282 2.9 WSW | 242 262 -86 1.0 12.0 88.5 3.8 0.16
9/28/22 - 1820 92.9 90.9 24 49.8 0.00 85.3 25.4 1,013.5 1.1 NW | 306 3.9 WNW | 300 262 -82 1.5 11.9 91.7 3.8 0.16
9/28/22 - 1810 94.1 92.6 22 49.4 0.00 85.1 25.4 1,013.4 0.8 NW | 326 2.6 NNW | 343 262 -59 1.2 11.6 93.8 3.8 0.16
9/28/22 - 1800 95.9 94.0 21 48.7 0.00 85.2 25.4 1,013.3 0.7 NNW | 330 3.0 NNW | 339 262 -41 0.7 11.4 95.3 3.8 0.16
9/28/22 - 1750 97.5 95.9 19 48.2 0.00 85.2 25.3 1,013.2 0.7 NNW | 332 4.6 W | 261 262 -19 0.9 11.3 96.7 3.8 0.16
9/28/22 - 1740 98.3 97.3 18 48.0 0.00 85.1 25.3 1,013.1 1.0 W | 280 3.7 WSW | 249 262 4 1.5 11.2 97.7 3.8 0.16
9/28/22 - 1730 98.4 97.8 18 47.9 0.00 85.0 25.3 1,012.9 1.2 WNW | 300 5.4 W | 259 262 29 1.6 10.9 98.6 3.8 0.16
9/28/22 - 1720 98.2 97.6 18 47.8 0.00 84.9 25.3 1,012.8 1.1 NW | 314 5.5 NW | 316 262 55 1.0 10.6 99.4 3.8 0.16
9/28/22 - 1710 99.2 98.0 18 47.2 0.00 84.9 25.3 1,012.8 2.1 NW | 304 6.7 NNW | 338 261 81 2.7 10.5 100.3 3.8 0.16
9/28/22 - 1700 99.9 98.9 17 46.8 0.00 84.8 25.3 1,012.8 1.6 WNW | 294 6.6 NE | 39 261 105 2.4 10.0 101.2 3.8 0.16
9/28/22 - 1650 99.8 99.2 17 47.0 0.00 84.7 25.2 1,012.8 1.5 NW | 314 7.1 NNW | 337 261 130 2.2 9.6 102.4 3.8 0.16
9/28/22 - 1640 101.0 99.6 18 48.3 0.00 84.7 25.2 1,012.8 1.6 WNW | 302 5.3 WNW | 294 261 154 1.9 9.3 103.7 3.8 0.16
9/28/22 - 1630 101.9 100.9 16 46.7 0.00 84.6 25.2 1,012.8 1.7 NW | 305 6.0 WSW | 239 261 175 1.9 9.0 105.1 3.8 0.16
9/28/22 - 1620 102.6 101.2 17 48.4 0.00 84.5 25.2 1,012.8 2.3 W | 279 6.9 W | 269 262 200 2.6 8.6 105.9 3.8 0.16
9/28/22 - 1610 102.9 100.9 16 47.6 0.00 84.4 25.2 1,012.8 3.1 W | 273 9.4 WSW | 245 262 223 2.9 8.2 107.3 3.8 0.16
9/28/22 - 1600 104.4 102.9 16 48.7 0.00 84.3 25.1 1,012.7 1.9 W | 281 6.7 WSW | 254 261 241 2.2 7.7 107.7 3.8 0.16
9/28/22 - 1550 104.1 103.0